Flight Track Log - Related Links

Times and Time Zones

All times are in EDT time to prevent confusion due to time zone crossing. See the TRS585 flight status page for this flight to view local times or setup timezone preferences in your user account.

Time Position Orientation Groundspeed Altitude Reporting Facility
EDT Latitude Longitude Course Direction KTS MPH feet Rate Location/Type
Mon 07:54:06 PM 39.7167 -86.2833 90° East 146 168 1,900  Level Indianapolis TRACON
Mon 07:54:18 PM 39.7167 -86.2667 90° East 142 163 2,300 2,333 Climbing Indianapolis TRACON
Mon 07:55:18 PM 39.7167 -86.2000 90° East 253 291 4,700 1,850 Climbing Indianapolis TRACON
Mon 07:56:18 PM 39.6667 -86.1500 142° Southeast 290 334 6,000 1,200 Climbing Indianapolis TRACON
Mon 07:57:13 PM 39.6056 -86.1061 151° Southeast 281 323 7,000 2,410 Climbing Indianapolis Center
Mon 07:58:15 PM 39.5303 -86.1117 183° South 271 312 10,700 2,613 Climbing Indianapolis Center
Mon 07:59:17 PM 39.4442 -86.1236 186° South 305 351 12,400 2,341 Climbing Indianapolis Center
Mon 08:00:18 PM 39.3464 -86.1358 186° South 343 395 15,500 2,878 Climbing Indianapolis Center
Mon 08:01:20 PM 39.2464 -86.1472 185° South 353 406 18,300 2,710 Climbing Indianapolis Center
Mon 08:02:22 PM 39.1206 -86.1642 186° South 374 430 21,100 2,293 Climbing Indianapolis Center
Mon 08:03:23 PM 39.0108 -86.1767 185° South 388 447 23,000 1,902 Climbing Indianapolis Center
Mon 08:04:25 PM 38.8975 -86.1900 185° South 404 465 25,000 1,935 Climbing Indianapolis Center
Mon 08:05:27 PM 38.7842 -86.1983 183° South 405 466 27,000 1,756 Climbing Indianapolis Center
Mon 08:06:28 PM 38.6719 -86.1311 155° Southeast 436 502 28,600 976 Climbing Indianapolis Center
Mon 08:07:30 PM 38.5694 -86.0417 146° Southeast 444 511 29,000 194 Climbing Indianapolis Center
Mon 08:08:32 PM 38.4681 -85.9536 146° Southeast 441 507 29,000 537 Level Indianapolis Center
Mon 08:09:33 PM 38.3653 -85.8653 146° Southeast 441 507 30,100 1,073 Climbing Indianapolis Center
Mon 08:10:35 PM 38.2611 -85.7761 146° Southeast 443 510 31,200 1,597 Climbing Indianapolis Center
Mon 08:11:37 PM 38.1356 -85.6692 146° Southeast 447 514 33,400 1,756 Climbing Indianapolis Center
Mon 08:12:38 PM 38.0333 -85.5825 146° Southeast 444 511 34,800 1,268 Climbing Indianapolis Center
Mon 08:13:40 PM 37.9317 -85.4972 147° Southeast 439 505 36,000 968 Climbing Indianapolis Center
Mon 08:14:42 PM 37.8297 -85.4108 146° Southeast 439 505 36,800 488 Climbing Indianapolis Center
Mon 08:15:43 PM 37.7339 -85.3303 146° Southeast 439 505 37,000 98 Climbing Indianapolis Center
Mon 08:16:45 PM 37.6161 -85.2319 147° Southeast 438 504 37,000  Level Indianapolis Center
Mon 08:17:47 PM 37.5150 -85.1478 147° Southeast 434 499 37,000  Level Indianapolis Center
Mon 08:18:48 PM 37.4153 -85.0653 147° Southeast 433 498 37,000  Level Indianapolis Center
Mon 08:19:50 PM 37.3156 -84.9836 147° Southeast 430 495 37,000  Level Indianapolis Center
Mon 08:20:51 PM 37.2167 -84.9008 146° Southeast 429 494 37,000  Level Indianapolis Center
Mon 08:21:53 PM 37.1186 -84.8222 147° Southeast 421 484 37,000  Level Indianapolis Center
Mon 08:22:55 PM 37.0233 -84.7422 146° Southeast 420 483 37,000  Level Indianapolis Center
Mon 08:23:56 PM 36.9058 -84.6475 147° Southeast 420 483 37,000  Level Indianapolis Center
Mon 08:24:58 PM 36.8097 -84.5683 147° Southeast 418 481 37,000  Level Indianapolis Center
Mon 08:26:00 PM 36.7139 -84.4911 147° Southeast 418 481 37,000  Level Indianapolis Center
Mon 08:27:01 PM 36.6164 -84.4114 147° Southeast 418 481 37,000  Level Indianapolis Center
Mon 08:28:03 PM 36.5169 -84.3317 147° Southeast 419 482 37,000  Level Indianapolis Center
Mon 08:29:05 PM 36.4158 -84.2497 147° Southeast 419 482 37,000  Level Indianapolis Center
Mon 08:30:06 PM 36.3161 -84.1714 148° Southeast 419 482 37,000  Level Indianapolis Center
Mon 08:31:08 PM 36.2175 -84.0908 147° Southeast 420 483 37,000  Level Indianapolis Center
Mon 08:32:10 PM 36.1192 -84.0122 147° Southeast 420 483 37,000  Level Indianapolis Center
Mon 08:32:53 PM 36.0436 -83.9539 148° Southeast 418 481 37,000  Level Atlanta Center
Mon 08:33:53 PM 35.9350 -83.8694 148° Southeast 418 481 37,000  Level Atlanta Center
Mon 08:34:53 PM 35.8369 -83.7928 148° Southeast 418 481 37,000  Level Atlanta Center
Mon 08:35:53 PM 35.7386 -83.7139 147° Southeast 418 481 37,000  Level Atlanta Center
Mon 08:36:53 PM 35.6364 -83.6503 153° Southeast 418 481 37,000  Level Atlanta Center
Mon 08:37:53 PM 35.5361 -83.6075 161° South 402 463 37,000  Level Atlanta Center
Mon 08:38:53 PM 35.4336 -83.5622 160° South 390 449 37,000  Level Atlanta Center
Mon 08:39:53 PM 35.3333 -83.5194 161° South 390 449 37,000  Level Atlanta Center
Mon 08:40:53 PM 35.2308 -83.4769 161° South 385 443 37,000  Level Atlanta Center
Mon 08:41:53 PM 35.1411 -83.4419 162° South 385 443 37,000  Level Atlanta Center
Mon 08:42:53 PM 35.0406 -83.3994 161° South 385 443 37,000  Level Atlanta Center
Mon 08:43:53 PM 34.9403 -83.3547 160° South 385 443 37,000  Level Atlanta Center
Mon 08:44:53 PM 34.8419 -83.3125 161° South 385 443 37,000  Level Atlanta Center
Mon 08:45:53 PM 34.7436 -83.2678 160° South 385 443 37,000  Level Atlanta Center
Mon 08:46:53 PM 34.6325 -83.2183 160° South 388 447 37,000  Level Atlanta Center
Mon 08:47:53 PM 34.5322 -83.1789 162° South 388 447 37,000  Level Atlanta Center
Mon 08:48:53 PM 34.4400 -83.1394 161° South 383 441 37,000  Level Atlanta Center
Mon 08:49:53 PM 34.3375 -83.0981 162° South 388 447 37,000  Level Atlanta Center
Mon 08:50:53 PM 34.2369 -83.0564 161° South 383 441 37,000  Level Atlanta Center
Mon 08:51:53 PM 34.1344 -83.0122 160° South 383 441 37,000  Level Atlanta Center
Mon 08:52:53 PM 34.0297 -82.9711 162° South 388 447 37,000  Level Atlanta Center
Mon 08:53:53 PM 33.9164 -82.9247 161° South 394 453 37,000  Level Atlanta Center
Mon 08:54:53 PM 33.8097 -82.8911 165° South 394 453 37,000 -300 Level Atlanta Center
Mon 08:55:53 PM 33.7072 -82.8750 173° South 386 444 36,400 -500 Descending Atlanta Center
Mon 08:56:53 PM 33.6008 -82.8592 173° South 381 438 36,000 -200 Descending Atlanta Center
Mon 08:57:53 PM 33.4961 -82.8406 172° South 381 438 36,000  Level Atlanta Center
Mon 08:58:53 PM 33.3917 -82.8222 172° South 392 451 36,000  Level Atlanta Center
Mon 08:59:53 PM 33.2914 -82.8061 172° South 387 445 36,000  Level Atlanta Center
Mon 09:00:53 PM 33.1806 -82.7878 172° South 387 445 36,000  Level Atlanta Center
Mon 09:01:53 PM 33.0758 -82.7694 172° South 387 445 36,000  Level Atlanta Center
Mon 09:02:53 PM 32.9797 -82.7536 172° South 387 445 36,000  Level Atlanta Center
Mon 09:03:53 PM 32.8731 -82.7331 171° South 387 445 36,000  Level Atlanta Center
Mon 09:04:53 PM 32.7664 -82.7147 172° South 387 445 36,000  Level Atlanta Center
Mon 09:07:02 PM 32.5233 -82.6783 173° South 397 457 36,000  Level Jacksonville Center
Mon 09:08:02 PM 32.4147 -82.6539 169° South 402 463 36,000  Level Jacksonville Center
Mon 09:09:02 PM 32.3167 -82.6369 172° South 402 463 36,000  Level Jacksonville Center
Mon 09:10:02 PM 32.2081 -82.6175 171° South 397 457 36,000  Level Jacksonville Center
Mon 09:11:02 PM 32.0972 -82.5983 172° South 397 457 36,000  Level Jacksonville Center
Mon 09:12:02 PM 31.9908 -82.5814 172° South 397 457 36,000  Level Jacksonville Center
Mon 09:13:02 PM 31.8822 -82.5647 173° South 397 457 36,000 -400 Level Jacksonville Center
Mon 09:14:02 PM 31.7714 -82.5456 172° South 397 457 35,200 -1,150 Descending Jacksonville Center
Mon 09:15:02 PM 31.6608 -82.5289 173° South 402 463 33,700 -1,600 Descending Jacksonville Center
Mon 09:16:02 PM 31.5481 -82.5097 172° South 408 470 32,000 -850 Descending Jacksonville Center
Mon 09:17:02 PM 31.4308 -82.4883 171° South 408 470 32,000  Level Jacksonville Center
Mon 09:18:02 PM 31.3097 -82.4622 170° South 414 476 32,000  Level Jacksonville Center
Mon 09:19:02 PM 31.1928 -82.4433 172° South 414 476 32,000  Level Jacksonville Center
Mon 09:20:02 PM 31.0819 -82.4172 169° South 414 476 32,000  Level Jacksonville Center
Mon 09:21:02 PM 30.9650 -82.3936 170° South 414 476 32,000  Level Jacksonville Center
Mon 09:22:02 PM 30.8481 -82.3700 170° South 414 476 32,000  Level Jacksonville Center
Mon 09:23:02 PM 30.7308 -82.3464 170° South 424 488 32,000  Level Jacksonville Center
Mon 09:24:02 PM 30.6203 -82.3228 170° South 436 502 32,000  Level Jacksonville Center
Mon 09:25:02 PM 30.4906 -82.2922 169° South 441 507 32,000  Level Jacksonville Center
Mon 09:26:02 PM 30.3714 -82.2689 170° South 446 513 32,000 -400 Level Jacksonville Center
Mon 09:27:02 PM 30.2503 -82.2458 171° South 440 506 31,200 -750 Descending Jacksonville Center
Mon 09:28:02 PM 30.1292 -82.2200 170° South 446 513 30,500 -700 Descending Jacksonville Center
Mon 09:29:02 PM 30.0203 -82.2017 172° South 446 513 29,800 -700 Descending Jacksonville Center
Mon 09:30:02 PM 29.8969 -82.1761 170° South 446 513 29,100 -750 Descending Jacksonville Center
Mon 09:31:02 PM 29.7800 -82.1292 161° South 446 513 28,300 -750 Descending Jacksonville Center
Mon 09:32:02 PM 29.6564 -82.0753 159° South 459 528 27,600 -700 Descending Jacksonville Center
Mon 09:33:02 PM 29.5350 -82.0308 162° South 465 535 26,900 -300 Descending Jacksonville Center
Mon 09:34:02 PM 29.4200 -81.9889 162° South 455 524 27,000 -1,250 Climbing Jacksonville Center
Mon 09:35:02 PM 29.3028 -81.9425 161° South 455 524 24,400 -3,900 Descending Jacksonville Center
Mon 09:36:02 PM 29.1917 -81.8983 161° South 439 505 19,200 -5,250 Descending Jacksonville Center
Mon 09:37:02 PM 29.0911 -81.8589 161° South 412 474 13,900 -3,650 Descending Jacksonville Center
Mon 09:38:02 PM 29.0033 -81.8242 161° South 377 434 11,900 -1,550 Descending Jacksonville Center
Mon 09:39:02 PM 28.9358 -81.7561 139° Southeast 310 357 10,800 -1,550 Descending Jacksonville Center
Mon 09:40:02 PM 28.8892 -81.6831 126° Southeast 295 339 8,800 -1,950 Descending Jacksonville Center
Mon 09:41:02 PM 28.8428 -81.6125 127° Southeast 288 331 6,900 -950 Descending Jacksonville Center
Mon 09:42:02 PM 28.7981 -81.5469 128° Southeast 275 316 6,900 -500 Level Jacksonville Center
Mon 09:43:02 PM 28.7683 -81.4808 117° Southeast 255 293 5,900 -900 Descending Jacksonville Center
Mon 09:44:02 PM 28.7300 -81.4247 128° Southeast 236 272 5,100 -1,100 Descending Jacksonville Center
Mon 09:45:02 PM 28.6794 -81.3900 149° Southeast 211 243 3,700 -1,100 Descending Jacksonville Center
Mon 09:46:02 PM 28.6272 -81.3669 159° South 204 235 2,900 -490 Descending Jacksonville Center
Mon 09:47:29 PM 28.5667 -81.3333 154° Southeast 142 163 2,500 -449 Descending Orlando TRACON
Mon 09:48:29 PM 28.5333 -81.3333 180° South 114 131 1,800 -700 Descending Orlando TRACON
Mon 09:49:29 PM 28.5000 -81.3167 156° South 111 128 1,100 -650 Descending Orlando TRACON
Mon 09:50:29 PM 28.4667 -81.3167 180° South 117 135 500 -600 Descending Orlando TRACON
Mon 09:52:00 PM 28.4294 -81.3090 180° South  Level Estimated
Mon 09:59:00 PM 28.4294 -81.3090 24° Northeast  Level Estimated
Mon 10:00:00 PM 28.4294 -81.3090 24° Northeast  Level Estimated

Login

Don't have an account? Register now (free) for customized features, flight alerts, and more!